createdAt,value
2023-05-12T00:01:17.339Z,11.92
2023-05-12T00:03:44.554Z,11.89
2023-05-12T00:06:12.403Z,11.87
2023-05-12T00:08:39.295Z,11.82
2023-05-12T00:11:06.228Z,11.79
2023-05-12T00:13:33.320Z,11.78
2023-05-12T00:16:00.586Z,11.76
2023-05-12T00:18:28.661Z,11.75
2023-05-12T00:20:56.830Z,11.78
2023-05-12T00:23:23.652Z,11.74
2023-05-12T00:25:50.810Z,11.72
2023-05-12T00:28:18.874Z,11.69
2023-05-12T00:30:45.882Z,11.67
2023-05-12T00:33:13.146Z,11.64
2023-05-12T00:35:40.324Z,11.61
2023-05-12T00:38:07.218Z,11.58
2023-05-12T00:40:34.105Z,11.58
2023-05-12T00:43:01.442Z,11.55
2023-05-12T00:45:31.977Z,11.52
2023-05-12T00:47:59.125Z,11.50
2023-05-12T00:50:26.542Z,11.52
2023-05-12T00:52:53.661Z,11.53
2023-05-12T00:55:20.733Z,11.51
2023-05-12T00:57:47.782Z,11.49
2023-05-12T01:00:16.427Z,11.46
2023-05-12T01:02:45.763Z,11.46
2023-05-12T01:05:12.813Z,11.48
2023-05-12T01:07:40.706Z,11.48
2023-05-12T01:10:21.955Z,11.50
2023-05-12T01:12:49.111Z,11.52
2023-05-12T01:15:18.769Z,11.55
2023-05-12T01:18:01.727Z,11.58
2023-05-12T01:20:31.967Z,11.60
2023-05-12T01:23:01.228Z,11.61
2023-05-12T01:25:33.220Z,11.55
2023-05-12T01:28:03.532Z,11.48
2023-05-12T01:30:32.731Z,11.42
2023-05-12T01:33:00.133Z,11.37
2023-05-12T01:35:28.055Z,11.34
2023-05-12T01:37:59.888Z,11.28
2023-05-12T01:40:27.286Z,11.28
2023-05-12T01:42:55.640Z,11.26
2023-05-12T01:45:22.934Z,11.22
2023-05-12T01:47:51.673Z,11.14
2023-05-12T01:50:18.851Z,11.13
2023-05-12T01:52:46.586Z,11.11
2023-05-12T01:55:16.289Z,11.08
2023-05-12T01:57:55.942Z,11.07
2023-05-12T02:00:23.370Z,11.11
2023-05-12T02:02:53.106Z,11.09
2023-05-12T02:05:20.235Z,11.06
2023-05-12T02:07:49.513Z,11.05
2023-05-12T02:10:17.838Z,11.06
2023-05-12T02:12:45.199Z,11.04
2023-05-12T02:15:12.536Z,11.06
2023-05-12T02:17:43.818Z,11.06
2023-05-12T02:20:12.311Z,11.03
2023-05-12T02:22:39.259Z,11.02
2023-05-12T02:25:06.785Z,10.99
2023-05-12T02:27:34.315Z,10.96
2023-05-12T02:30:02.241Z,10.96
2023-05-12T02:32:29.954Z,10.95
2023-05-12T02:34:56.811Z,10.95
2023-05-12T02:37:24.131Z,10.96
2023-05-12T02:39:51.027Z,10.97
2023-05-12T02:42:18.740Z,10.94
2023-05-12T02:44:45.741Z,10.94
2023-05-12T02:47:12.590Z,10.93
2023-05-12T02:49:39.515Z,10.93
2023-05-12T02:52:06.745Z,10.93
2023-05-12T02:54:33.615Z,10.90
2023-05-12T02:57:05.776Z,10.90
2023-05-12T02:59:32.704Z,10.92
2023-05-12T03:01:59.727Z,10.90
2023-05-12T03:04:26.712Z,10.88
2023-05-12T03:06:53.508Z,10.88
2023-05-12T03:09:20.388Z,10.90
2023-05-12T03:11:47.184Z,10.89
2023-05-12T03:14:13.967Z,10.90
2023-05-12T03:16:40.929Z,10.89
2023-05-12T03:19:08.619Z,10.89
2023-05-12T03:21:35.711Z,10.88
2023-05-12T03:24:04.082Z,10.89
2023-05-12T03:26:31.433Z,10.92
2023-05-12T03:28:58.252Z,10.91
2023-05-12T03:31:25.091Z,10.92
2023-05-12T03:33:52.056Z,10.93
2023-05-12T03:36:19.021Z,10.95
2023-05-12T03:38:45.838Z,10.99
2023-05-12T03:41:13.618Z,10.99
2023-05-12T03:43:40.617Z,10.99
2023-05-12T03:46:08.040Z,10.98
2023-05-12T03:48:34.929Z,10.97
2023-05-12T03:51:01.810Z,11.00
2023-05-12T03:53:28.664Z,11.00
2023-05-12T03:55:57.179Z,11.00
2023-05-12T03:58:24.435Z,11.02
2023-05-12T04:00:51.258Z,11.00
2023-05-12T04:03:18.450Z,10.98
2023-05-12T04:05:45.277Z,11.02
2023-05-12T04:08:12.579Z,11.05
2023-05-12T04:10:42.789Z,11.05
2023-05-12T04:13:09.546Z,11.07
2023-05-12T04:15:36.514Z,11.07
2023-05-12T04:18:04.275Z,11.10
2023-05-12T04:20:31.295Z,11.13
2023-05-12T04:22:58.298Z,11.13
2023-05-12T04:25:26.484Z,11.15
2023-05-12T04:27:53.373Z,11.16
2023-05-12T04:30:20.418Z,11.17
2023-05-12T04:32:48.728Z,11.18
2023-05-12T04:35:17.083Z,11.22
2023-05-12T04:37:44.114Z,11.24
2023-05-12T04:40:11.373Z,11.26
2023-05-12T04:42:38.251Z,11.25
2023-05-12T04:45:08.042Z,11.28
2023-05-12T04:47:35.686Z,11.30
2023-05-12T04:50:04.394Z,11.33
2023-05-12T04:52:32.135Z,11.36
2023-05-12T04:54:59.853Z,11.41
2023-05-12T04:57:26.859Z,11.45
2023-05-12T04:59:54.137Z,11.47
2023-05-12T05:02:21.066Z,11.50
2023-05-12T05:04:48.845Z,11.55
2023-05-12T05:07:16.548Z,11.59
2023-05-12T05:09:43.342Z,11.61
2023-05-12T05:12:10.624Z,11.66
2023-05-12T05:14:37.473Z,11.67
2023-05-12T05:17:04.551Z,11.71
2023-05-12T05:19:44.711Z,11.75
2023-05-12T05:22:18.323Z,11.77
2023-05-12T05:24:45.190Z,11.81
2023-05-12T05:27:12.677Z,11.84
2023-05-12T05:29:39.559Z,11.88
2023-05-12T05:32:08.378Z,11.90
2023-05-12T05:34:36.137Z,11.96
2023-05-12T05:37:03.465Z,12.00
2023-05-12T05:39:30.945Z,12.09
2023-05-12T05:41:58.208Z,12.17
2023-05-12T05:44:25.588Z,12.27
2023-05-12T05:46:53.302Z,12.35
2023-05-12T05:49:20.294Z,12.42
2023-05-12T05:51:48.000Z,12.48
2023-05-12T05:54:15.887Z,12.54
2023-05-12T05:56:43.257Z,12.66
2023-05-12T05:59:11.035Z,12.82
2023-05-12T06:01:38.279Z,12.96
2023-05-12T06:04:05.653Z,13.11
2023-05-12T06:06:32.663Z,13.26
2023-05-12T06:09:00.287Z,13.38
2023-05-12T06:11:27.312Z,13.50
2023-05-12T06:13:54.115Z,13.66
2023-05-12T06:16:20.998Z,13.88
2023-05-12T06:18:47.821Z,14.04
2023-05-12T06:21:15.280Z,14.04
2023-05-12T06:23:42.169Z,14.08
2023-05-12T06:26:09.555Z,14.29
2023-05-12T06:28:36.318Z,14.55
2023-05-12T06:31:03.202Z,14.70
2023-05-12T06:33:30.025Z,14.90
2023-05-12T06:35:57.469Z,14.87
2023-05-12T06:38:25.392Z,15.01
2023-05-12T06:40:52.287Z,15.10
2023-05-12T06:43:19.501Z,15.24
2023-05-12T06:45:46.270Z,15.25
2023-05-12T06:48:13.072Z,15.25
2023-05-12T06:50:39.870Z,15.21
2023-05-12T06:53:08.087Z,15.10
2023-05-12T06:55:35.081Z,15.04
2023-05-12T06:58:02.458Z,15.17
2023-05-12T07:00:29.305Z,15.42
2023-05-12T07:02:56.234Z,15.44
2023-05-12T07:05:23.564Z,15.51
2023-05-12T07:07:52.913Z,15.64
2023-05-12T07:10:21.122Z,15.84
2023-05-12T07:12:48.079Z,16.09
2023-05-12T07:15:14.913Z,16.35
2023-05-12T07:17:42.182Z,16.55
2023-05-12T07:20:09.842Z,17.05
2023-05-12T07:22:38.779Z,17.25
2023-05-12T07:25:07.727Z,17.80
2023-05-12T07:27:35.127Z,18.37
2023-05-12T07:30:02.006Z,18.81
2023-05-12T07:32:28.908Z,19.18
2023-05-12T07:34:55.665Z,19.48
2023-05-12T07:37:23.277Z,19.78
2023-05-12T07:39:50.140Z,19.95
2023-05-12T07:42:17.090Z,20.02
2023-05-12T07:44:44.922Z,20.02
2023-05-12T07:47:11.771Z,19.92
2023-05-12T07:49:38.545Z,20.25
2023-05-12T07:52:05.498Z,20.56
2023-05-12T07:54:32.519Z,20.13
2023-05-12T07:56:59.359Z,20.14
2023-05-12T07:59:26.394Z,19.72
2023-05-12T08:01:54.062Z,20.21
2023-05-12T08:04:21.444Z,20.56
2023-05-12T08:06:48.326Z,20.82
2023-05-12T08:09:15.146Z,20.94
2023-05-12T08:11:44.020Z,20.65
2023-05-12T08:14:12.966Z,20.08
2023-05-12T08:16:40.966Z,20.00
2023-05-12T08:19:08.253Z,20.14
2023-05-12T08:21:35.191Z,20.10
2023-05-12T08:24:01.947Z,19.77
2023-05-12T08:26:36.128Z,19.44
2023-05-12T08:29:04.711Z,19.23
2023-05-12T08:31:32.657Z,19.01
2023-05-12T08:34:09.740Z,18.99
2023-05-12T08:36:40.711Z,19.03
2023-05-12T08:39:10.257Z,19.18
2023-05-12T08:42:18.718Z,19.26
2023-05-12T08:44:46.910Z,19.11
2023-05-12T08:47:18.471Z,19.04
2023-05-12T08:49:55.652Z,19.28
2023-05-12T08:52:23.307Z,19.75
2023-05-12T08:54:56.042Z,20.03
2023-05-12T08:57:25.348Z,20.38
2023-05-12T08:59:55.861Z,20.48
2023-05-12T09:02:24.773Z,20.48
2023-05-12T09:04:53.128Z,20.43
2023-05-12T09:07:21.110Z,20.39
2023-05-12T09:09:54.627Z,20.21
2023-05-12T09:12:22.081Z,19.90
2023-05-12T09:15:10.451Z,19.75
2023-05-12T09:17:37.814Z,19.83
2023-05-12T09:20:11.331Z,20.09
2023-05-12T09:22:42.112Z,20.17
2023-05-12T09:25:21.767Z,20.18
2023-05-12T09:27:55.032Z,20.10
2023-05-12T09:30:33.272Z,20.19
2023-05-12T09:33:09.530Z,20.32
2023-05-12T09:35:44.988Z,20.47
2023-05-12T09:38:14.385Z,20.49
2023-05-12T09:40:41.319Z,20.45
2023-05-12T09:43:08.954Z,20.39
2023-05-12T09:45:38.883Z,20.51
2023-05-12T09:48:12.486Z,20.57
2023-05-12T09:51:00.989Z,20.56
2023-05-12T09:53:27.825Z,20.32
2023-05-12T09:55:54.623Z,20.10
2023-05-12T09:58:26.952Z,19.89
2023-05-12T10:03:30.352Z,19.60
2023-05-12T10:06:03.820Z,19.53
2023-05-12T10:08:44.417Z,19.75
2023-05-12T10:11:13.320Z,20.13
2023-05-12T10:13:40.777Z,20.45
2023-05-12T10:16:08.912Z,20.74
2023-05-12T10:18:36.164Z,20.93
2023-05-12T10:21:04.055Z,21.08
2023-05-12T10:23:31.901Z,21.03
2023-05-12T10:26:02.280Z,20.95
2023-05-12T10:28:29.712Z,20.65
2023-05-12T10:31:00.532Z,20.46
2023-05-12T10:33:27.807Z,20.43
2023-05-12T10:35:54.706Z,20.31
2023-05-12T10:38:21.654Z,20.11
2023-05-12T10:40:54.681Z,19.89
2023-05-12T10:43:24.132Z,19.74
2023-05-12T10:46:10.281Z,19.74
2023-05-12T10:48:54.062Z,19.80
2023-05-12T10:51:34.161Z,19.78
2023-05-12T10:54:07.964Z,19.56
2023-05-12T10:56:38.442Z,19.43
2023-05-12T10:59:25.254Z,19.39
2023-05-12T11:02:05.299Z,19.39
2023-05-12T11:05:00.717Z,19.47
2023-05-12T11:07:33.124Z,19.48
2023-05-12T11:10:06.104Z,19.47
2023-05-12T11:12:38.090Z,19.36
2023-05-12T11:15:07.130Z,19.26
2023-05-12T11:17:37.856Z,19.35
2023-05-12T11:20:05.549Z,19.66
2023-05-12T11:22:35.875Z,19.83
2023-05-12T11:25:11.825Z,20.16
2023-05-12T11:27:42.445Z,20.65
2023-05-12T11:30:11.173Z,21.12
2023-05-12T11:32:38.205Z,21.46
2023-05-12T11:35:12.596Z,21.73
2023-05-12T11:37:41.633Z,22.05
2023-05-12T11:40:16.483Z,22.35
2023-05-12T11:42:48.401Z,22.60
2023-05-12T11:45:30.511Z,22.85
2023-05-12T11:48:14.640Z,22.93
2023-05-12T11:50:43.543Z,22.98
2023-05-12T11:53:14.681Z,23.12
2023-05-12T11:55:53.212Z,23.56
2023-05-12T11:58:23.024Z,23.91
2023-05-12T12:00:50.130Z,24.32
2023-05-12T12:03:17.102Z,24.46
2023-05-12T12:05:58.197Z,24.31
2023-05-12T12:08:25.076Z,23.92
2023-05-12T12:10:51.941Z,23.65
2023-05-12T12:13:24.209Z,23.30
2023-05-12T12:15:51.943Z,22.92
2023-05-12T12:18:19.189Z,22.67
2023-05-12T12:20:47.414Z,22.49
2023-05-12T12:23:14.393Z,22.35
2023-05-12T12:25:41.416Z,22.32
2023-05-12T12:28:08.390Z,22.19
2023-05-12T12:30:35.224Z,22.07
2023-05-12T12:33:02.470Z,22.13
2023-05-12T12:35:29.362Z,22.18
2023-05-12T12:37:56.169Z,22.10
2023-05-12T12:40:22.919Z,21.91
2023-05-12T12:42:49.780Z,21.86
2023-05-12T12:45:19.340Z,21.99
2023-05-12T12:47:47.335Z,22.26
2023-05-12T12:50:14.247Z,22.45
2023-05-12T12:52:41.155Z,22.73
2023-05-12T12:55:08.783Z,23.05
2023-05-12T12:57:36.301Z,23.23
2023-05-12T13:00:04.784Z,23.33
2023-05-12T13:02:31.772Z,23.27
2023-05-12T13:04:58.750Z,23.30
2023-05-12T13:07:25.810Z,23.44
2023-05-12T13:09:52.651Z,23.60
2023-05-12T13:12:19.518Z,23.72
2023-05-12T13:14:46.567Z,23.67
2023-05-12T13:17:13.433Z,23.53
2023-05-12T13:19:40.939Z,23.53
2023-05-12T13:22:07.696Z,23.48
2023-05-12T13:24:34.623Z,23.35
2023-05-12T13:27:01.494Z,23.05
2023-05-12T13:29:28.255Z,22.77
2023-05-12T13:31:55.064Z,22.72
2023-05-12T13:34:21.901Z,23.17
2023-05-12T13:36:48.652Z,23.49
2023-05-12T13:39:16.817Z,23.52
2023-05-12T13:41:44.665Z,23.54
2023-05-12T13:44:11.485Z,23.45
2023-05-12T13:46:38.362Z,23.29
2023-05-12T13:49:05.179Z,23.42
2023-05-12T13:51:32.528Z,23.62
2023-05-12T13:53:59.367Z,24.01
2023-05-12T13:56:26.810Z,24.36
2023-05-12T13:58:54.000Z,24.67
2023-05-12T14:01:21.586Z,25.09
2023-05-12T14:03:48.480Z,24.86
2023-05-12T14:06:15.588Z,24.60
2023-05-12T14:08:42.528Z,24.36
2023-05-12T14:11:10.103Z,24.39
2023-05-12T14:13:37.026Z,24.61
2023-05-12T14:16:04.703Z,24.78
2023-05-12T14:18:31.719Z,24.88
2023-05-12T14:20:58.814Z,24.96
2023-05-12T14:23:25.639Z,25.13
2023-05-12T14:25:52.720Z,24.93
2023-05-12T14:28:19.639Z,24.75
2023-05-12T14:30:48.632Z,24.71
2023-05-12T14:33:15.749Z,24.80
2023-05-12T14:35:44.705Z,24.97
2023-05-12T14:38:15.161Z,25.29
2023-05-12T14:40:43.555Z,25.33
2023-05-12T14:43:10.363Z,25.32
2023-05-12T14:45:37.216Z,25.31
2023-05-12T14:48:04.530Z,25.36
2023-05-12T14:50:31.331Z,25.27
2023-05-12T14:52:58.466Z,25.44
2023-05-12T14:55:25.927Z,25.45
2023-05-12T14:57:52.666Z,25.78
2023-05-12T15:00:21.270Z,25.98
2023-05-12T15:02:48.563Z,25.69
2023-05-12T15:05:15.841Z,25.13
2023-05-12T15:07:42.769Z,24.63
2023-05-12T15:10:10.739Z,24.58
2023-05-12T15:12:37.608Z,24.59
2023-05-12T15:15:06.029Z,24.75
2023-05-12T15:17:32.986Z,24.83
2023-05-12T15:19:59.841Z,25.08
2023-05-12T15:22:31.212Z,25.23
2023-05-12T15:24:59.404Z,25.42
2023-05-12T15:27:26.766Z,25.45
2023-05-12T15:29:53.976Z,25.41
2023-05-12T15:32:20.833Z,25.41
2023-05-12T15:34:47.789Z,25.57
2023-05-12T15:37:14.690Z,25.74
2023-05-12T15:39:41.491Z,25.89
2023-05-12T15:42:09.415Z,25.91
2023-05-12T15:44:36.384Z,26.03
2023-05-12T15:47:03.798Z,26.07
2023-05-12T15:49:30.567Z,26.08
2023-05-12T15:51:57.381Z,25.92
2023-05-12T15:54:26.364Z,25.47
2023-05-12T15:56:53.219Z,24.56
2023-05-12T15:59:20.239Z,22.93
2023-05-12T16:01:47.664Z,20.52
2023-05-12T16:04:14.543Z,18.67
2023-05-12T16:06:41.337Z,17.45
2023-05-12T16:09:08.123Z,16.57
2023-05-12T16:11:34.976Z,15.91
2023-05-12T16:14:03.161Z,15.63
2023-05-12T16:16:30.516Z,15.21
2023-05-12T16:18:57.492Z,14.80
2023-05-12T16:21:24.524Z,14.70
2023-05-12T16:23:51.365Z,14.49
2023-05-12T16:26:19.359Z,14.32
2023-05-12T16:28:46.388Z,14.16
2023-05-12T16:31:17.913Z,14.11
2023-05-12T16:33:45.001Z,14.13
2023-05-12T16:36:11.902Z,14.17
2023-05-12T16:38:38.732Z,14.18
2023-05-12T16:41:05.503Z,14.14
2023-05-12T16:43:32.317Z,14.22
2023-05-12T16:46:03.429Z,14.46
2023-05-12T16:48:34.314Z,14.68
2023-05-12T16:51:02.410Z,14.85
2023-05-12T16:53:29.958Z,15.06
2023-05-12T16:55:57.943Z,15.27
2023-05-12T16:58:27.566Z,15.46
2023-05-12T17:00:54.501Z,15.63
2023-05-12T17:03:21.436Z,15.81
2023-05-12T17:05:48.685Z,16.01
2023-05-12T17:08:18.258Z,16.17
2023-05-12T17:10:46.022Z,16.23
2023-05-12T17:13:12.828Z,16.29
2023-05-12T17:15:40.631Z,16.38
2023-05-12T17:18:07.670Z,16.42
2023-05-12T17:20:34.726Z,16.48
2023-05-12T17:23:02.498Z,16.49
2023-05-12T17:25:31.175Z,16.46
2023-05-12T17:27:58.471Z,16.42
2023-05-12T17:30:25.407Z,16.36
2023-05-12T17:32:52.232Z,16.28
2023-05-12T17:35:19.605Z,16.16
2023-05-12T17:37:46.647Z,16.03
2023-05-12T17:40:19.771Z,15.81
2023-05-12T17:42:46.789Z,15.53
2023-05-12T17:45:16.324Z,15.24
2023-05-12T17:47:44.648Z,15.11
2023-05-12T17:50:12.646Z,14.95
2023-05-12T17:52:39.507Z,14.72
2023-05-12T17:55:07.003Z,14.58
2023-05-12T17:57:34.628Z,14.51
2023-05-12T18:00:06.307Z,14.54
2023-05-12T18:02:41.212Z,14.62
2023-05-12T18:05:09.935Z,14.70
2023-05-12T18:07:37.113Z,14.74
2023-05-12T18:10:08.773Z,14.83
2023-05-12T18:12:37.755Z,14.90
2023-05-12T18:15:06.351Z,14.96
2023-05-12T18:17:33.326Z,15.03
2023-05-12T18:20:00.452Z,15.12
2023-05-12T18:22:27.342Z,15.15
2023-05-12T18:24:54.561Z,15.18
2023-05-12T18:27:21.434Z,15.20
2023-05-12T18:29:48.237Z,15.21
2023-05-12T18:32:15.101Z,15.23
2023-05-12T18:34:44.083Z,15.24
2023-05-12T18:37:14.382Z,15.24
2023-05-12T18:39:43.023Z,15.25
2023-05-12T18:42:12.749Z,15.24
2023-05-12T18:44:41.314Z,15.24
2023-05-12T18:47:08.917Z,15.23
2023-05-12T18:49:36.732Z,15.23
2023-05-12T18:52:04.612Z,15.23
2023-05-12T18:54:31.408Z,15.24
2023-05-12T18:56:58.296Z,15.24
2023-05-12T18:59:25.138Z,15.24
2023-05-12T19:01:52.032Z,15.19
2023-05-12T19:04:19.592Z,15.16
2023-05-12T19:06:46.796Z,15.16
2023-05-12T19:09:13.896Z,15.19
2023-05-12T19:11:40.963Z,15.23
2023-05-12T19:14:07.854Z,15.26
2023-05-12T19:16:36.369Z,15.27
2023-05-12T19:19:03.401Z,15.26
2023-05-12T19:21:32.368Z,15.26
2023-05-12T19:23:59.360Z,15.26
2023-05-12T19:26:26.871Z,15.27
2023-05-12T19:28:53.929Z,15.27
2023-05-12T19:31:20.836Z,15.26
2023-05-12T19:33:47.725Z,15.25
2023-05-12T19:36:14.898Z,15.25
2023-05-12T19:38:43.624Z,15.24
2023-05-12T19:41:11.227Z,15.23
2023-05-12T19:43:39.309Z,15.20
2023-05-12T19:46:06.196Z,15.17
2023-05-12T19:48:33.212Z,15.12
2023-05-12T19:51:00.204Z,15.09
2023-05-12T19:53:27.085Z,15.07
2023-05-12T19:55:54.069Z,15.05
2023-05-12T19:58:20.869Z,15.02
2023-05-12T20:00:48.054Z,14.99
2023-05-12T20:03:15.237Z,14.95
2023-05-12T20:05:42.433Z,14.93
2023-05-12T20:08:09.486Z,14.89
2023-05-12T20:10:36.255Z,14.87
2023-05-12T20:13:06.125Z,14.84
2023-05-12T20:15:34.326Z,14.81
2023-05-12T20:18:01.252Z,14.77
2023-05-12T20:20:28.198Z,14.74
2023-05-12T20:22:55.082Z,14.72
2023-05-12T20:25:22.133Z,14.66
2023-05-12T20:27:49.149Z,14.63
2023-05-12T20:30:16.089Z,14.64
2023-05-12T20:32:43.673Z,14.62
2023-05-12T20:35:10.796Z,14.63
2023-05-12T20:37:38.865Z,14.65
2023-05-12T20:40:07.180Z,14.69
2023-05-12T20:42:33.991Z,14.74
2023-05-12T20:45:01.453Z,14.82
2023-05-12T20:47:30.359Z,14.87
2023-05-12T20:49:57.600Z,14.94
2023-05-12T20:52:28.809Z,14.96
2023-05-12T20:54:58.289Z,14.97
2023-05-12T20:57:26.671Z,15.00
2023-05-12T20:59:56.606Z,15.04
2023-05-12T21:02:28.209Z,15.04
2023-05-12T21:04:55.754Z,15.08
2023-05-12T21:07:22.603Z,15.11
2023-05-12T21:09:49.787Z,15.11
2023-05-12T21:12:16.646Z,15.14
2023-05-12T21:14:45.557Z,15.14
2023-05-12T21:17:13.007Z,15.13
2023-05-12T21:19:41.438Z,15.12
2023-05-12T21:22:10.391Z,15.10
2023-05-12T21:24:39.399Z,15.06
2023-05-12T21:27:08.111Z,15.02
2023-05-12T21:29:36.415Z,15.01
2023-05-12T21:32:03.510Z,14.98
2023-05-12T21:34:31.534Z,14.96
2023-05-12T21:37:00.017Z,14.94
2023-05-12T21:39:27.829Z,14.92
2023-05-12T21:41:55.113Z,14.89
2023-05-12T21:44:21.927Z,14.85
2023-05-12T21:46:48.835Z,14.80
2023-05-12T21:49:15.678Z,14.77
2023-05-12T21:51:42.542Z,14.74
2023-05-12T21:54:09.331Z,14.72
2023-05-12T21:56:36.920Z,14.68
2023-05-12T21:59:04.085Z,14.66
2023-05-12T22:01:30.944Z,14.64
2023-05-12T22:04:01.281Z,14.63
2023-05-12T22:06:28.137Z,14.61
2023-05-12T22:08:55.810Z,14.59
2023-05-12T22:11:23.557Z,14.58
2023-05-12T22:13:50.800Z,14.56
2023-05-12T22:16:20.038Z,14.55
2023-05-12T22:18:50.588Z,14.51
2023-05-12T22:21:17.585Z,14.49
2023-05-12T22:23:44.503Z,14.45
2023-05-12T22:26:11.353Z,14.42
2023-05-12T22:28:38.210Z,14.38
2023-05-12T22:31:05.239Z,14.38
2023-05-12T22:33:32.567Z,14.37
2023-05-12T22:36:00.180Z,14.37
2023-05-12T22:38:28.020Z,14.35
2023-05-12T22:40:54.884Z,14.34
2023-05-12T22:43:21.847Z,14.31
2023-05-12T22:45:52.394Z,14.28
2023-05-12T22:48:20.439Z,14.26
2023-05-12T22:50:48.028Z,14.22
2023-05-12T22:53:15.315Z,14.20
2023-05-12T22:55:42.112Z,14.18
2023-05-12T22:58:10.307Z,14.18
2023-05-12T23:00:37.708Z,14.15
2023-05-12T23:03:04.707Z,14.14
2023-05-12T23:05:31.550Z,14.13
2023-05-12T23:07:58.325Z,14.13
2023-05-12T23:10:25.365Z,14.12
2023-05-12T23:12:52.183Z,14.10
2023-05-12T23:15:19.395Z,14.09
2023-05-12T23:17:46.488Z,14.08
2023-05-12T23:20:14.131Z,14.06
2023-05-12T23:22:40.879Z,14.04
2023-05-12T23:25:08.585Z,14.02
2023-05-12T23:27:36.849Z,13.99
2023-05-12T23:30:04.936Z,13.96
2023-05-12T23:32:31.826Z,13.94
2023-05-12T23:34:58.708Z,13.92
2023-05-12T23:37:25.815Z,13.90
2023-05-12T23:39:52.672Z,13.86
2023-05-12T23:42:19.504Z,13.84
2023-05-12T23:44:46.290Z,13.82
2023-05-12T23:47:13.053Z,13.81
2023-05-12T23:49:39.855Z,13.79
2023-05-12T23:52:06.748Z,13.78
2023-05-12T23:54:33.486Z,13.78
2023-05-12T23:57:00.305Z,13.77
2023-05-12T23:59:27.074Z,13.77
